Time;durP1;ratioP1;P1;durP2;ratioP2;P2;SDS_P1;SDS_P2;PMS_P1;PMS_P2;Temp;Humidity;BMP_temperature;BMP_pressure;BME280_temperature;BME280_humidity;BME280_pressure;Samples;Min_cycle;Max_cycle;Signal;HPM_P1;HPM_P2
2022/09/21 00:00:15;;;;;;;17.80;16.80;;;8.00;92.50;;;;;;5031734;28;20287;-71
2022/09/21 00:02:41;;;;;;;17.95;16.95;;;7.90;92.30;;;;;;5019386;28;20622;-71
2022/09/21 00:05:10;;;;;;;18.10;16.92;;;7.80;92.60;;;;;;5021733;28;20988;-71
2022/09/21 00:07:37;;;;;;;18.55;17.45;;;7.80;92.80;;;;;;5026294;28;20194;-70
2022/09/21 00:10:04;;;;;;;17.70;16.80;;;7.80;93.40;;;;;;5025647;28;20208;-71
2022/09/21 00:12:32;;;;;;;19.13;17.85;;;7.80;93.60;;;;;;5024881;28;20224;-71
2022/09/21 00:14:59;;;;;;;18.27;17.05;;;7.80;93.90;;;;;;5025660;28;20245;-71
2022/09/21 00:17:26;;;;;;;17.60;16.60;;;7.80;93.80;;;;;;5026387;28;20205;-71
2022/09/21 00:19:53;;;;;;;17.20;16.10;;;7.70;93.70;;;;;;5025502;28;20255;-70
2022/09/21 00:22:21;;;;;;;18.73;17.33;;;7.80;94.30;;;;;;5017662;28;20623;-71
2022/09/21 00:24:48;;;;;;;18.67;17.67;;;7.80;94.00;;;;;;5026916;28;20651;-71
2022/09/21 00:27:15;;;;;;;18.45;17.35;;;7.80;93.60;;;;;;5024337;28;20628;-70
2022/09/21 00:29:41;;;;;;;18.90;17.80;;;7.80;92.90;;;;;;5026209;28;20340;-70
2022/09/21 00:32:08;;;;;;;18.77;17.40;;;7.70;92.80;;;;;;5021151;28;20204;-71
2022/09/21 00:34:35;;;;;;;17.67;16.67;;;7.60;92.80;;;;;;5025202;28;20221;-71
2022/09/21 00:37:02;;;;;;;18.02;16.70;;;7.60;92.90;;;;;;5026997;28;20201;-70
2022/09/21 00:39:31;;;;;;;17.90;16.77;;;7.60;93.10;;;;;;5026552;28;20189;-71
2022/09/21 00:41:57;;;;;;;17.92;16.92;;;7.60;93.50;;;;;;5022551;28;20197;-70
2022/09/21 00:44:29;;;;;;;17.50;16.50;;;7.60;93.70;;;;;;5026576;28;20202;-71
2022/09/21 00:47:01;;;;;;;17.75;16.67;;;7.60;93.60;;;;;;5021792;28;20205;-70
2022/09/21 00:49:28;;;;;;;19.17;17.83;;;7.60;93.90;;;;;;5019349;28;20204;-71
2022/09/21 00:51:58;;;;;;;18.80;17.50;;;7.60;94.10;;;;;;5018207;28;20304;-71
2022/09/21 00:54:28;;;;;;;18.83;17.60;;;7.60;93.90;;;;;;5027281;28;20217;-70
2022/09/21 00:57:01;;;;;;;17.55;16.55;;;7.50;94.30;;;;;;5026932;28;20193;-71
2022/09/21 00:59:31;;;;;;;17.88;16.83;;;7.50;94.50;;;;;;5022230;28;20204;-71
2022/09/21 01:01:59;;;;;;;17.73;16.70;;;7.60;94.20;;;;;;5027225;28;20225;-71
2022/09/21 01:04:27;;;;;;;18.30;17.30;;;7.60;94.10;;;;;;5030304;28;20235;-71
2022/09/21 01:06:55;;;;;;;17.63;16.63;;;7.60;93.30;;;;;;5024997;28;20205;-71
2022/09/21 01:09:22;;;;;;;17.77;16.52;;;7.60;93.10;;;;;;5028400;28;20220;-70
2022/09/21 01:12:06;;;;;;;18.73;17.73;;;7.50;92.80;;;;;;5033910;28;20216;-71
2022/09/21 01:15:06;;;;;;;18.08;17.08;;;7.50;93.20;;;;;;5025142;28;20221;-70
2022/09/21 01:17:43;;;;;;;18.63;17.38;;;7.40;93.20;;;;;;5028991;28;20204;-70
2022/09/21 01:20:40;;;;;;;17.73;16.73;;;7.40;92.80;;;;;;5026237;28;20202;-71
2022/09/21 01:23:31;;;;;;;18.00;16.80;;;7.30;93.20;;;;;;5020296;28;20313;-70
2022/09/21 01:26:08;;;;;;;17.65;16.63;;;7.40;93.60;;;;;;5026174;28;20858;-70
2022/09/21 01:29:01;;;;;;;18.10;17.10;;;7.30;93.00;;;;;;5021903;28;20206;-71
2022/09/21 01:31:36;;;;;;;17.17;16.10;;;7.30;93.00;;;;;;5027429;28;20839;-70
2022/09/21 01:34:10;;;;;;;18.65;17.25;;;7.20;92.60;;;;;;5029876;28;20225;-71
2022/09/21 01:36:39;;;;;;;17.20;16.30;;;7.20;92.70;;;;;;5019735;28;20277;-70
2022/09/21 01:39:09;;;;;;;17.88;16.88;;;7.10;92.80;;;;;;5027628;28;20224;-70
2022/09/21 01:41:38;;;;;;;18.27;17.17;;;7.10;93.20;;;;;;5026166;28;20201;-70
2022/09/21 01:44:10;;;;;;;18.67;17.55;;;7.00;93.40;;;;;;5031258;28;20217;-70
2022/09/21 01:46:38;;;;;;;18.50;17.30;;;6.90;93.70;;;;;;5031813;28;20614;-71
2022/09/21 01:49:11;;;;;;;16.92;15.82;;;6.90;93.60;;;;;;5026362;28;20205;-70
2022/09/21 01:51:43;;;;;;;18.35;17.25;;;6.90;93.70;;;;;;5028119;28;20217;-70
2022/09/21 01:54:15;;;;;;;18.15;17.05;;;6.90;93.60;;;;;;5025683;28;20232;-71
2022/09/21 01:56:50;;;;;;;25.23;18.38;;;6.90;93.40;;;;;;5032511;28;20704;-70
2022/09/21 01:59:23;;;;;;;18.80;17.60;;;6.80;93.70;;;;;;5025091;28;20216;-71
2022/09/21 02:01:53;;;;;;;18.63;17.45;;;6.80;93.80;;;;;;5023297;28;20293;-69
2022/09/21 02:04:20;;;;;;;17.63;16.52;;;6.80;93.80;;;;;;5024984;28;21155;-69
2022/09/21 02:06:48;;;;;;;18.83;17.63;;;6.80;93.90;;;;;;5033811;28;20206;-69
2022/09/21 02:09:16;;;;;;;20.15;18.85;;;6.80;94.10;;;;;;5024557;28;20205;-69
2022/09/21 02:11:44;;;;;;;20.30;19.20;;;6.80;94.10;;;;;;5036264;28;20603;-69
2022/09/21 02:14:13;;;;;;;19.75;18.55;;;6.90;93.90;;;;;;5028971;28;20726;-69
2022/09/21 02:16:49;;;;;;;19.15;17.77;;;6.90;93.40;;;;;;5023409;28;20297;-69
2022/09/21 02:19:22;;;;;;;20.40;19.10;;;6.80;93.40;;;;;;5022068;28;22593;-69
2022/09/21 02:22:03;;;;;;;21.45;20.15;;;6.70;93.50;;;;;;5027599;28;20210;-69
2022/09/21 02:24:38;;;;;;;18.65;17.45;;;6.70;93.70;;;;;;5026086;28;20711;-69
2022/09/21 02:27:10;;;;;;;21.85;20.65;;;6.80;93.50;;;;;;5027446;28;20196;-69
2022/09/21 02:29:47;;;;;;;18.60;17.60;;;6.80;93.30;;;;;;5026282;28;20735;-69
2022/09/21 02:32:23;;;;;;;18.58;17.38;;;6.70;93.50;;;;;;5027524;28;20206;-70
2022/09/21 02:34:54;;;;;;;17.95;16.95;;;6.70;93.70;;;;;;5029418;28;20217;-69
2022/09/21 02:37:30;;;;;;;19.33;18.23;;;6.70;93.60;;;;;;5028944;28;20284;-69
2022/09/21 02:40:03;;;;;;;18.35;17.40;;;6.70;93.40;;;;;;5024845;28;20197;-69
2022/09/21 02:42:35;;;;;;;17.95;16.77;;;6.60;93.80;;;;;;5028823;28;20229;-69
2022/09/21 02:45:09;;;;;;;19.80;18.70;;;6.50;93.80;;;;;;5025890;28;20198;-69
2022/09/21 02:47:46;;;;;;;19.27;18.08;;;6.50;94.00;;;;;;5027152;28;20197;-69
2022/09/21 02:50:17;;;;;;;27.63;26.15;;;6.50;94.00;;;;;;5023378;28;20193;-69
2022/09/21 02:52:44;;;;;;;22.10;20.80;;;6.50;94.00;;;;;;5025272;28;20287;-69
2022/09/21 02:55:13;;;;;;;19.27;18.27;;;6.50;94.00;;;;;;5024107;28;20588;-69
2022/09/21 02:57:41;;;;;;;21.35;20.02;;;6.50;93.60;;;;;;5026399;28;20202;-69
2022/09/21 03:00:10;;;;;;;28.63;27.10;;;6.60;93.40;;;;;;5023954;28;20195;-69
2022/09/21 03:02:40;;;;;;;19.05;17.95;;;6.50;93.40;;;;;;5025764;28;20220;-69
2022/09/21 03:05:08;;;;;;;17.83;16.70;;;6.50;93.50;;;;;;5016875;28;20201;-69
2022/09/21 03:07:36;;;;;;;19.90;18.80;;;6.50;93.40;;;;;;5025646;28;20201;-70
2022/09/21 03:10:04;;;;;;;24.58;23.30;;;6.40;93.90;;;;;;5024447;28;20205;-71
2022/09/21 03:12:31;;;;;;;22.70;21.30;;;6.40;94.10;;;;;;5027746;28;20228;-71
2022/09/21 03:14:58;;;;;;;19.65;18.23;;;6.40;94.20;;;;;;5027990;28;20221;-71
2022/09/21 03:17:26;;;;;;;22.13;20.73;;;6.40;94.30;;;;;;5024850;28;20205;-70
2022/09/21 03:19:54;;;;;;;20.17;18.98;;;6.40;93.90;;;;;;5024605;28;20244;-70
2022/09/21 03:22:21;;;;;;;26.80;25.20;;;6.40;93.70;;;;;;5026705;28;20252;-70
2022/09/21 03:24:48;;;;;;;20.45;19.25;;;6.40;93.60;;;;;;5024328;28;20693;-71
2022/09/21 03:27:17;;;;;;;18.98;17.90;;;6.40;93.50;;;;;;5022891;28;20194;-70
2022/09/21 03:29:44;;;;;;;24.52;23.13;;;6.30;93.90;;;;;;5027716;28;20194;-71
2022/09/21 03:32:11;;;;;;;22.60;21.00;;;6.30;94.10;;;;;;5024873;28;20197;-70
2022/09/21 03:34:38;;;;;;;18.60;17.50;;;6.30;94.20;;;;;;5026837;28;20584;-70
2022/09/21 03:37:08;;;;;;;29.77;28.25;;;6.30;94.20;;;;;;5024344;28;20202;-70
2022/09/21 03:39:35;;;;;;;31.77;30.23;;;6.30;94.30;;;;;;5016418;28;20576;-71
2022/09/21 03:42:03;;;;;;;36.35;34.53;;;6.30;94.30;;;;;;5023361;28;20193;-70
2022/09/21 03:44:30;;;;;;;34.88;32.70;;;6.30;94.30;;;;;;5024722;28;20215;-69
2022/09/21 03:46:57;;;;;;;28.92;27.30;;;6.30;94.40;;;;;;5026841;28;20220;-69
2022/09/21 03:49:24;;;;;;;20.95;19.45;;;6.30;94.60;;;;;;5022325;28;20201;-69
2022/09/21 03:51:51;;;;;;;26.55;25.00;;;6.30;94.80;;;;;;5023134;28;20296;-69
2022/09/21 03:54:19;;;;;;;22.73;21.02;;;6.30;95.00;;;;;;5025173;28;20221;-69
2022/09/21 03:56:46;;;;;;;23.02;21.63;;;6.30;94.90;;;;;;5022244;28;20282;-69
2022/09/21 03:59:13;;;;;;;22.13;20.55;;;6.40;94.80;;;;;;5026371;28;20567;-69
2022/09/21 04:01:40;;;;;;;28.45;26.80;;;6.30;94.60;;;;;;5024198;28;20204;-69
2022/09/21 04:04:07;;;;;;;21.10;19.90;;;6.40;94.70;;;;;;5019068;28;20838;-69
2022/09/21 04:06:34;;;;;;;32.80;30.90;;;6.40;94.70;;;;;;5025394;28;20654;-69
2022/09/21 04:09:01;;;;;;;37.17;35.05;;;6.40;94.70;;;;;;5026736;28;20210;-69
2022/09/21 04:11:32;;;;;;;26.35;24.60;;;6.40;94.70;;;;;;5027549;28;20275;-69
2022/09/21 04:13:58;;;;;;;27.48;25.73;;;6.30;94.60;;;;;;5026633;28;20714;-69
2022/09/21 04:16:26;;;;;;;29.77;27.77;;;6.20;94.70;;;;;;5025317;28;20221;-69
2022/09/21 04:18:53;;;;;;;21.30;20.17;;;6.30;94.70;;;;;;5026113;28;20201;-69
2022/09/21 04:21:21;;;;;;;21.65;20.13;;;6.20;94.80;;;;;;5022564;28;20727;-69
2022/09/21 04:23:48;;;;;;;23.25;21.92;;;6.20;95.00;;;;;;5025064;28;20646;-69
2022/09/21 04:26:23;;;;;;;36.67;34.75;;;6.20;95.00;;;;;;5022454;28;20197;-69
2022/09/21 04:28:52;;;;;;;33.78;31.73;;;6.20;95.30;;;;;;5016625;28;21842;-70
2022/09/21 04:31:20;;;;;;;29.50;27.80;;;6.20;95.30;;;;;;5025336;28;20200;-69
2022/09/21 04:33:49;;;;;;;22.13;20.73;;;6.30;94.90;;;;;;5024002;28;20244;-69
2022/09/21 04:36:16;;;;;;;21.17;19.67;;;6.20;94.50;;;;;;5024521;28;20222;-69
2022/09/21 04:38:43;;;;;;;20.17;18.35;;;6.20;94.70;;;;;;5025620;28;20205;-69
2022/09/21 04:41:10;;;;;;;20.67;19.38;;;6.10;94.90;;;;;;5024187;28;20198;-69
2022/09/21 04:43:37;;;;;;;30.25;28.45;;;6.20;94.80;;;;;;5026115;28;20232;-69
2022/09/21 04:46:10;;;;;;;21.10;19.70;;;6.10;94.90;;;;;;5022718;28;20197;-69
2022/09/21 04:48:37;;;;;;;23.67;22.30;;;6.10;94.90;;;;;;5023478;28;20191;-69
2022/09/21 04:51:05;;;;;;;21.55;20.08;;;6.10;94.70;;;;;;5019410;28;20670;-69
2022/09/21 04:53:32;;;;;;;22.00;20.48;;;6.10;94.70;;;;;;5022668;28;21046;-69
2022/09/21 04:55:59;;;;;;;20.67;19.27;;;6.10;94.40;;;;;;5024629;28;20213;-69
2022/09/21 04:58:26;;;;;;;19.35;18.15;;;6.10;94.30;;;;;;5020939;28;20198;-69
2022/09/21 05:00:55;;;;;;;23.60;21.88;;;6.10;94.30;;;;;;5019425;28;20279;-69
2022/09/21 05:03:24;;;;;;;27.15;25.50;;;6.00;94.30;;;;;;5029245;28;20776;-69
2022/09/21 05:05:52;;;;;;;27.15;25.55;;;6.00;94.30;;;;;;5016344;28;20935;-69
2022/09/21 05:10:01;;;;;;;28.38;26.80;;;6.00;94.20;;;;;;5025487;28;20197;-70
2022/09/21 05:11:09;;;;;;;32.80;30.90;;;6.00;94.40;;;;;;5023592;28;20206;-70
2022/09/21 05:13:36;;;;;;;24.73;23.20;;;6.00;94.60;;;;;;5027870;28;20360;-70
2022/09/21 05:16:02;;;;;;;22.55;20.60;;;6.00;94.70;;;;;;5024381;28;20983;-69
2022/09/21 05:18:31;;;;;;;22.38;20.45;;;6.00;94.70;;;;;;5027966;28;20197;-69
2022/09/21 05:20:59;;;;;;;25.45;23.40;;;6.00;94.80;;;;;;5017827;28;20201;-69
2022/09/21 05:23:28;;;;;;;20.70;19.10;;;6.10;94.30;;;;;;5022000;28;20217;-69
2022/09/21 05:25:55;;;;;;;26.33;24.67;;;6.10;94.40;;;;;;5013066;28;20216;-69
2022/09/21 05:28:23;;;;;;;26.15;23.95;;;6.10;94.30;;;;;;5021916;28;20208;-69
2022/09/21 05:30:57;;;;;;;22.23;20.67;;;6.20;94.40;;;;;;5021374;28;20198;-69
2022/09/21 05:33:28;;;;;;;26.65;24.70;;;6.20;94.70;;;;;;5023812;28;20212;-70
2022/09/21 05:36:06;;;;;;;41.10;38.10;;;6.30;94.70;;;;;;5024510;28;20333;-70
2022/09/21 05:38:33;;;;;;;24.40;22.40;;;6.30;94.80;;;;;;5022012;28;20228;-69
2022/09/21 05:41:03;;;;;;;24.67;23.17;;;6.30;94.60;;;;;;5016207;28;20198;-69
2022/09/21 05:43:30;;;;;;;25.48;23.77;;;6.40;94.70;;;;;;5025659;28;20217;-70
2022/09/21 05:46:04;;;;;;;28.10;26.40;;;6.40;94.60;;;;;;5026247;28;20716;-69
2022/09/21 05:48:40;;;;;;;27.00;25.10;;;6.50;94.50;;;;;;5025969;28;20211;-68
2022/09/21 05:51:17;;;;;;;30.25;28.25;;;6.50;94.60;;;;;;5028165;28;20267;-68
2022/09/21 05:53:55;;;;;;;24.13;22.33;;;6.60;94.40;;;;;;5030099;28;20232;-70
2022/09/21 05:56:43;;;;;;;27.02;25.40;;;6.70;94.10;;;;;;5026573;28;20267;-68
2022/09/21 05:59:34;;;;;;;41.70;39.30;;;6.80;94.00;;;;;;5029351;28;20288;-68
2022/09/21 06:02:08;;;;;;;31.45;29.48;;;6.80;94.00;;;;;;5029651;28;20711;-68
2022/09/21 06:04:35;;;;;;;38.75;36.17;;;6.90;93.90;;;;;;5027805;28;20281;-69
2022/09/21 06:07:04;;;;;;;23.90;22.15;;;7.00;93.70;;;;;;5027157;28;20194;-68
2022/09/21 06:09:30;;;;;;;41.92;39.35;;;7.00;93.20;;;;;;5026450;28;20761;-69
2022/09/21 06:11:58;;;;;;;23.75;22.25;;;7.10;93.10;;;;;;5030135;28;20208;-68
2022/09/21 06:14:26;;;;;;;27.08;25.17;;;7.10;92.90;;;;;;5028017;28;20200;-68
2022/09/21 06:16:53;;;;;;;30.10;28.38;;;7.20;92.70;;;;;;5031278;28;20924;-70
2022/09/21 06:19:20;;;;;;;30.48;28.67;;;7.30;92.40;;;;;;5024459;28;20209;-70
2022/09/21 06:21:47;;;;;;;28.48;26.45;;;7.30;92.00;;;;;;5028841;28;20209;-71
2022/09/21 06:24:15;;;;;;;25.10;23.02;;;7.30;92.20;;;;;;5029529;28;20228;-72
2022/09/21 06:26:42;;;;;;;35.40;33.17;;;7.30;92.20;;;;;;5028754;28;20205;-71
2022/09/21 06:29:09;;;;;;;25.30;23.60;;;7.50;92.10;;;;;;5027393;28;20896;-73
2022/09/21 06:31:36;;;;;;;29.48;27.27;;;7.60;92.00;;;;;;5019570;28;20209;-70
2022/09/21 06:34:03;;;;;;;25.02;23.33;;;7.70;91.90;;;;;;5027835;28;20224;-69
2022/09/21 06:36:29;;;;;;;27.35;25.13;;;7.70;91.80;;;;;;5028860;28;20226;-69
2022/09/21 06:38:56;;;;;;;35.90;33.55;;;7.80;91.90;;;;;;5027053;28;20689;-70
2022/09/21 06:41:25;;;;;;;26.73;25.00;;;7.90;91.80;;;;;;5028353;28;20194;-71
2022/09/21 06:43:54;;;;;;;25.75;24.02;;;8.00;91.60;;;;;;5029247;28;20217;-70
2022/09/21 06:46:21;;;;;;;32.05;30.05;;;8.20;91.30;;;;;;5023685;28;20240;-69
2022/09/21 06:48:49;;;;;;;26.60;24.75;;;8.20;90.80;;;;;;5028042;28;20259;-70
2022/09/21 06:51:20;;;;;;;27.67;25.88;;;8.30;90.50;;;;;;5026567;28;20201;-70
2022/09/21 06:53:47;;;;;;;29.35;27.45;;;8.40;90.30;;;;;;5029521;28;20283;-71
2022/09/21 06:56:14;;;;;;;30.38;28.00;;;8.50;90.00;;;;;;5025770;28;20235;-71
2022/09/21 06:58:43;;;;;;;38.45;35.75;;;8.70;90.00;;;;;;5025976;28;20253;-71
2022/09/21 07:01:12;;;;;;;29.50;27.40;;;8.80;89.70;;;;;;5027630;28;20232;-73
2022/09/21 07:03:41;;;;;;;27.92;26.17;;;8.90;89.20;;;;;;5027869;28;20210;-69
2022/09/21 07:06:10;;;;;;;28.25;26.15;;;8.80;89.00;;;;;;5024197;28;20194;-68
2022/09/21 07:08:38;;;;;;;32.28;30.38;;;8.90;89.20;;;;;;5020827;28;20624;-69
2022/09/21 07:11:06;;;;;;;30.63;28.77;;;9.10;89.10;;;;;;5027159;28;20194;-69
2022/09/21 07:13:34;;;;;;;39.10;36.80;;;9.30;88.60;;;;;;5028360;28;20307;-68
2022/09/21 07:16:06;;;;;;;28.60;26.65;;;9.40;88.10;;;;;;5026599;28;20239;-69
2022/09/21 07:18:33;;;;;;;28.10;26.30;;;9.50;87.70;;;;;;5025954;28;20203;-68
2022/09/21 07:21:03;;;;;;;41.25;38.72;;;9.50;87.30;;;;;;5020681;28;20464;-71
2022/09/21 07:23:29;;;;;;;34.73;31.90;;;9.60;87.00;;;;;;5024258;28;20814;-71
2022/09/21 07:26:01;;;;;;;35.07;32.53;;;9.70;86.70;;;;;;5028126;28;20823;-68
2022/09/21 07:28:28;;;;;;;31.90;29.50;;;9.80;86.40;;;;;;5020816;28;20470;-69
2022/09/21 07:30:55;;;;;;;28.20;26.43;;;9.90;85.80;;;;;;5022235;28;20475;-68
2022/09/21 07:33:24;;;;;;;47.07;44.30;;;9.90;85.30;;;;;;5024845;28;20906;-68
2022/09/21 07:35:51;;;;;;;37.23;34.80;;;10.00;85.30;;;;;;5021136;28;20464;-71
2022/09/21 07:38:18;;;;;;;34.17;32.00;;;10.00;84.90;;;;;;5026465;28;20461;-70
2022/09/21 07:40:45;;;;;;;29.83;27.83;;;10.10;85.10;;;;;;5025154;28;20470;-70
2022/09/21 07:43:12;;;;;;;29.23;27.23;;;10.20;84.80;;;;;;5027839;28;20473;-73
2022/09/21 07:45:39;;;;;;;36.80;34.23;;;10.30;84.60;;;;;;5023430;28;20464;-70
2022/09/21 07:48:07;;;;;;;46.70;43.70;;;10.40;84.50;;;;;;5019513;28;20967;-71
2022/09/21 07:50:36;;;;;;;38.70;36.37;;;10.60;84.30;;;;;;5018729;28;20517;-70
2022/09/21 07:53:03;;;;;;;36.73;34.53;;;10.70;83.90;;;;;;5025927;28;21010;-71
2022/09/21 07:55:30;;;;;;;48.87;46.07;;;10.80;83.50;;;;;;5019071;28;20826;-71
2022/09/21 08:00:42;;;;;;;33.30;31.20;;;10.90;83.10;;;;;;5026815;28;20996;-70
2022/09/21 08:03:09;;;;;;;44.57;41.87;;;11.00;82.80;;;;;;5017312;28;20477;-70
2022/09/21 08:05:37;;;;;;;36.93;34.10;;;11.10;82.20;;;;;;5016852;28;20465;-70
2022/09/21 08:08:04;;;;;;;31.27;29.37;;;11.20;82.10;;;;;;5020380;28;20472;-70
2022/09/21 08:10:31;;;;;;;32.40;30.40;;;11.20;82.00;;;;;;5022984;28;20823;-71
2022/09/21 08:12:58;;;;;;;37.87;35.47;;;11.30;81.30;;;;;;5021104;28;20493;-70
2022/09/21 08:15:26;;;;;;;36.97;34.33;;;11.40;80.50;;;;;;5024027;28;20857;-67
2022/09/21 08:17:53;;;;;;;32.53;30.57;;;11.40;80.20;;;;;;5021265;28;20482;-70
2022/09/21 08:20:20;;;;;;;36.60;34.40;;;11.60;80.10;;;;;;5016252;28;20479;-70
2022/09/21 08:22:48;;;;;;;33.13;31.33;;;11.50;80.30;;;;;;5019354;28;20537;-70
2022/09/21 08:25:15;;;;;;;38.33;35.80;;;11.70;79.80;;;;;;5020061;28;20821;-71
2022/09/21 08:27:42;;;;;;;37.27;35.10;;;11.90;79.00;;;;;;5021604;28;20822;-70
2022/09/21 08:30:12;;;;;;;34.23;31.50;;;11.90;79.10;;;;;;5024619;28;20841;-70
2022/09/21 08:32:39;;;;;;;37.57;35.07;;;12.00;78.80;;;;;;5018837;28;20474;-70
2022/09/21 08:35:08;;;;;;;35.97;33.93;;;12.10;78.50;;;;;;5024898;28;20463;-70
2022/09/21 08:37:36;;;;;;;31.50;29.40;;;12.20;78.30;;;;;;5025797;28;20483;-69
2022/09/21 08:40:06;;;;;;;40.53;38.00;;;12.30;77.80;;;;;;5027052;28;20550;-68
2022/09/21 08:42:42;;;;;;;31.70;30.00;;;12.30;77.60;;;;;;5024662;28;20484;-69
2022/09/21 08:45:15;;;;;;;50.40;47.90;;;12.40;77.10;;;;;;5024260;28;20816;-69
2022/09/21 08:47:48;;;;;;;32.13;30.43;;;12.40;76.90;;;;;;5020081;28;20466;-70
2022/09/21 08:50:28;;;;;;;40.13;38.03;;;12.50;77.00;;;;;;5022274;28;20546;-69
2022/09/21 08:53:01;;;;;;;38.50;36.20;;;12.60;76.60;;;;;;5021613;28;20479;-69
2022/09/21 08:55:30;;;;;;;42.53;40.20;;;12.70;76.60;;;;;;5027896;28;20482;-69
2022/09/21 08:57:58;;;;;;;33.67;31.13;;;12.90;76.00;;;;;;5025441;28;20494;-69
2022/09/21 09:00:25;;;;;;;33.40;31.37;;;12.90;75.50;;;;;;5023977;28;20457;-69
2022/09/21 09:03:16;;;;;;;31.97;30.10;;;12.70;76.00;;;;;;5019804;28;21033;-69
2022/09/21 09:05:50;;;;;;;36.30;34.10;;;12.70;76.40;;;;;;5022951;28;20463;-69
2022/09/21 09:08:58;;;;;;;35.27;33.10;;;12.80;76.60;;;;;;5025439;28;20548;-69
2022/09/21 09:11:37;;;;;;;37.37;35.10;;;13.10;75.30;;;;;;5024922;28;20454;-69
2022/09/21 09:14:19;;;;;;;36.77;34.77;;;13.10;75.20;;;;;;5026784;28;20476;-69
2022/09/21 09:16:57;;;;;;;35.30;33.53;;;13.20;75.10;;;;;;5027206;28;20526;-70
2022/09/21 09:19:29;;;;;;;33.53;31.50;;;13.20;75.40;;;;;;5025002;28;20462;-69
2022/09/21 09:21:56;;;;;;;37.37;35.33;;;13.40;74.80;;;;;;5029566;28;20458;-69
2022/09/21 09:24:32;;;;;;;32.63;30.70;;;13.50;73.90;;;;;;5024830;28;20487;-69
2022/09/21 09:27:05;;;;;;;35.77;33.93;;;13.60;74.00;;;;;;5027986;28;20813;-70
2022/09/21 09:29:41;;;;;;;37.97;35.87;;;13.70;73.90;;;;;;5028519;28;20456;-71
2022/09/21 09:32:14;;;;;;;34.40;32.50;;;13.80;73.50;;;;;;5024080;28;20961;-71
2022/09/21 09:34:45;;;;;;;39.20;37.10;;;13.90;72.80;;;;;;5028505;28;20482;-73
2022/09/21 09:37:15;;;;;;;35.33;33.00;;;13.80;72.80;;;;;;5028231;28;21005;-72
2022/09/21 09:39:44;;;;;;;33.07;31.13;;;13.90;73.40;;;;;;5028637;28;20460;-71
2022/09/21 09:42:40;;;;;;;34.00;32.40;;;14.10;72.50;;;;;;5031606;28;20868;-71
2022/09/21 09:45:20;;;;;;;30.60;28.80;;;14.30;71.60;;;;;;5021441;28;20457;-71
2022/09/21 09:47:58;;;;;;;32.93;31.20;;;14.30;71.10;;;;;;5026449;28;20576;-71
2022/09/21 09:50:28;;;;;;;34.23;32.43;;;14.50;70.50;;;;;;5024432;28;20468;-71
2022/09/21 09:52:59;;;;;;;30.43;28.77;;;14.50;69.80;;;;;;5028098;28;20472;-70
2022/09/21 09:55:34;;;;;;;38.07;36.07;;;14.40;70.30;;;;;;5026879;28;20488;-70
2022/09/21 09:58:03;;;;;;;34.00;32.40;;;14.50;70.00;;;;;;5028953;28;20482;-72
2022/09/21 10:00:30;;;;;;;35.87;33.63;;;14.50;70.00;;;;;;5018735;28;20456;-71
2022/09/21 10:02:58;;;;;;;39.67;37.47;;;14.50;70.50;;;;;;5028811;28;20484;-73
2022/09/21 10:05:32;;;;;;;35.20;33.30;;;14.50;69.80;;;;;;5024987;28;20475;-73
2022/09/21 10:08:01;;;;;;;39.83;37.73;;;14.60;69.60;;;;;;5026238;28;20466;-70
2022/09/21 10:10:34;;;;;;;36.00;34.17;;;14.70;68.80;;;;;;5017782;28;20448;-71
2022/09/21 10:13:13;;;;;;;35.37;33.63;;;14.80;68.50;;;;;;5027180;28;20486;-73
2022/09/21 10:15:43;;;;;;;40.23;38.10;;;14.80;68.50;;;;;;5013831;28;20465;-76
2022/09/21 10:18:21;;;;;;;36.30;34.50;;;15.00;67.70;;;;;;5028537;28;20479;-74
2022/09/21 10:21:02;;;;;;;38.90;36.97;;;15.00;67.60;;;;;;5026078;28;20469;-74
2022/09/21 10:23:31;;;;;;;31.20;29.50;;;15.00;67.50;;;;;;5027698;28;20554;-74
2022/09/21 10:26:01;;;;;;;37.53;35.73;;;15.00;67.30;;;;;;5034062;28;20477;-72
2022/09/21 10:28:31;;;;;;;33.77;32.10;;;15.00;67.70;;;;;;5033743;28;20932;-74
2022/09/21 10:31:22;;;;;;;35.70;33.70;;;15.00;66.90;;;;;;5025244;28;20460;-72
2022/09/21 10:33:52;;;;;;;43.57;41.17;;;15.10;66.50;;;;;;5012391;28;20479;-72
2022/09/21 10:36:29;;;;;;;38.23;36.37;;;15.20;66.30;;;;;;5025519;28;20460;-72
2022/09/21 10:38:57;;;;;;;37.63;35.83;;;15.20;65.50;;;;;;5029990;28;20476;-73
2022/09/21 10:41:24;;;;;;;32.30;30.50;;;15.40;64.70;;;;;;5024898;28;20486;-73
2022/09/21 10:43:53;;;;;;;37.60;35.70;;;15.60;64.40;;;;;;5028146;28;20475;-72
2022/09/21 10:46:34;;;;;;;41.93;39.70;;;15.60;64.30;;;;;;5020221;28;20628;-72
2022/09/21 10:49:02;;;;;;;32.37;30.83;;;15.50;64.10;;;;;;5019414;28;20464;-71
2022/09/21 10:51:33;;;;;;;35.10;33.40;;;15.50;64.00;;;;;;5025080;28;20467;-71
2022/09/21 10:54:00;;;;;;;30.07;28.57;;;15.40;63.30;;;;;;5025364;28;20495;-71
2022/09/21 10:56:27;;;;;;;37.37;35.57;;;15.50;62.60;;;;;;5020658;28;20458;-71
2022/09/21 10:59:22;;;;;;;36.87;35.07;;;15.40;63.30;;;;;;5025803;28;20479;-71
2022/09/21 11:01:50;;;;;;;41.40;39.30;;;15.60;62.30;;;;;;5026003;28;20834;-71
2022/09/21 11:04:24;;;;;;;33.50;31.90;;;15.80;61.60;;;;;;5025937;28;20467;-73
2022/09/21 11:06:54;;;;;;;37.50;35.80;;;15.90;61.20;;;;;;5021581;28;20452;-71
2022/09/21 11:09:27;;;;;;;44.47;42.37;;;15.90;61.30;;;;;;5031361;28;20626;-71
2022/09/21 11:12:02;;;;;;;31.70;30.13;;;15.50;62.60;;;;;;5030264;28;20454;-71
2022/09/21 11:14:51;;;;;;;38.10;36.20;;;15.80;61.50;;;;;;5027699;28;20496;-71
2022/09/21 11:17:30;;;;;;;37.40;35.63;;;15.90;61.30;;;;;;5025933;28;20472;-70
2022/09/21 11:20:06;;;;;;;33.50;32.10;;;16.10;60.70;;;;;;5022681;28;20521;-71
2022/09/21 11:22:40;;;;;;;37.43;35.73;;;16.30;59.90;;;;;;5034243;28;20484;-71
2022/09/21 11:25:29;;;;;;;40.47;38.47;;;16.20;60.10;;;;;;5025825;28;20463;-71
2022/09/21 11:28:02;;;;;;;30.13;28.43;;;16.40;59.70;;;;;;5024934;28;20452;-73
2022/09/21 11:30:46;;;;;;;32.10;30.70;;;16.60;59.30;;;;;;5023502;28;20457;-72
2022/09/21 11:33:29;;;;;;;36.20;34.30;;;16.80;59.10;;;;;;5037174;28;20506;-73
2022/09/21 11:36:03;;;;;;;43.77;41.60;;;16.60;59.70;;;;;;5021306;28;20902;-73
2022/09/21 11:38:48;;;;;;;40.93;38.60;;;16.60;61.60;;;;;;5022691;28;20496;-73
2022/09/21 11:41:28;;;;;;;31.50;30.00;;;16.80;60.90;;;;;;5022876;28;20458;-73
2022/09/21 11:44:19;;;;;;;32.63;31.03;;;16.80;60.40;;;;;;5026623;28;20544;-72
2022/09/21 11:46:55;;;;;;;41.63;39.43;;;16.60;61.10;;;;;;5029643;28;20576;-74
2022/09/21 11:49:37;;;;;;;33.80;32.23;;;16.50;60.40;;;;;;5025197;28;20475;-73
2022/09/21 11:52:19;;;;;;;37.13;35.37;;;16.30;60.40;;;;;;5025262;28;20459;-73
2022/09/21 11:55:08;;;;;;;34.23;32.73;;;16.30;60.20;;;;;;5021804;28;20459;-73
2022/09/21 11:57:42;;;;;;;39.07;37.30;;;16.30;60.00;;;;;;5026357;28;20475;-74
2022/09/21 12:00:15;;;;;;;34.50;32.57;;;16.00;60.70;;;;;;5025017;28;20475;-72
2022/09/21 12:03:15;;;;;;;34.20;32.70;;;16.10;60.60;;;;;;5022721;28;20579;-72
2022/09/21 12:05:48;;;;;;;36.43;34.53;;;16.20;59.90;;;;;;5016867;28;20457;-75
2022/09/21 12:08:39;;;;;;;31.80;30.30;;;16.10;60.30;;;;;;5028323;28;20456;-73
2022/09/21 12:11:17;;;;;;;32.37;30.67;;;16.00;60.60;;;;;;5025279;28;20925;-73
2022/09/21 12:13:50;;;;;;;35.20;33.60;;;16.30;59.90;;;;;;5024967;28;20483;-74
2022/09/21 12:16:25;;;;;;;32.60;30.90;;;16.50;59.10;;;;;;5026706;28;20539;-73
2022/09/21 12:18:59;;;;;;;42.50;40.50;;;16.90;58.60;;;;;;5025380;28;20479;-74
2022/09/21 12:21:30;;;;;;;32.67;31.27;;;17.20;56.40;;;;;;5024010;28;20467;-73
2022/09/21 12:23:59;;;;;;;29.23;27.97;;;16.90;55.50;;;;;;5028333;28;20503;-73
2022/09/21 12:26:31;;;;;;;42.00;39.90;;;16.90;55.70;;;;;;5019900;28;20476;-76
2022/09/21 12:29:02;;;;;;;34.97;33.27;;;16.90;56.00;;;;;;5025562;28;20955;-74
2022/09/21 12:31:33;;;;;;;41.67;39.67;;;16.90;56.30;;;;;;5023406;28;20471;-78
2022/09/21 12:34:06;;;;;;;37.87;36.23;;;16.60;56.40;;;;;;5023475;28;20703;-75
2022/09/21 12:36:37;;;;;;;35.23;33.73;;;16.60;56.90;;;;;;5027465;28;20465;-74
2022/09/21 12:39:10;;;;;;;32.33;30.83;;;16.80;55.90;;;;;;5029425;28;20475;-75
2022/09/21 12:41:45;;;;;;;37.03;35.23;;;17.00;56.20;;;;;;5023636;28;20461;-74
2022/09/21 12:44:18;;;;;;;38.10;36.13;;;16.70;56.20;;;;;;5015702;28;20499;-75
2022/09/21 12:46:49;;;;;;;35.20;33.60;;;16.70;56.00;;;;;;5024103;28;20452;-74
2022/09/21 12:49:26;;;;;;;34.67;32.87;;;17.00;56.40;;;;;;5025084;28;20502;-75
2022/09/21 12:51:57;;;;;;;31.20;29.80;;;17.20;55.80;;;;;;5030245;28;20470;-75
2022/09/21 12:54:31;;;;;;;31.60;30.10;;;17.40;55.30;;;;;;5026138;28;20463;-75
2022/09/21 12:57:07;;;;;;;30.07;28.67;;;17.80;54.90;;;;;;5032410;28;20980;-74